Time;durP1;ratioP1;P1;durP2;ratioP2;P2;SDS_P1;SDS_P2;PMS_P1;PMS_P2;Temp;Humidity;BMP_temperature;BMP_pressure;BME280_temperature;BME280_humidity;BME280_pressure;Samples;Min_cycle;Max_cycle;Signal;HPM_P1;HPM_P2
2022/07/05 00:01:47;;;;;;;;;1.50;1.50;;;;;;;;4918475;28;46579;-48
2022/07/05 00:04:13;;;;;;;;;0.50;0.50;;;;;;;;4918602;28;45283;-54
2022/07/05 00:07:17;;;;;;;;;4.75;1.75;;;;;;;;4918653;28;45385;-52
2022/07/05 00:09:23;;;;;;;;;0.80;0.80;;;;;;;;4929796;28;45570;-47
2022/07/05 00:11:48;;;;;;;;;2.25;0.50;;;;;;;;4937516;28;45470;-48
2022/07/05 00:14:14;;;;;;;;;1.75;1.75;;;;;;;;4937731;28;45336;-47
2022/07/05 00:16:39;;;;;;;;;6.50;4.00;;;;;;;;4936048;28;45736;-50
2022/07/05 00:19:04;;;;;;;;;0.75;0.75;;;;;;;;4937920;28;45348;-49
2022/07/05 00:21:29;;;;;;;;;2.50;1.50;;;;;;;;4937231;28;46734;-50
2022/07/05 00:23:55;;;;;;;;;0.75;0.75;;;;;;;;4937795;28;45308;-48
2022/07/05 00:26:20;;;;;;;;;1.00;1.00;;;;;;;;4937467;28;45380;-48
2022/07/05 00:28:45;;;;;;;;;1.50;1.50;;;;;;;;4936376;28;46127;-51
2022/07/05 00:31:10;;;;;;;;;1.00;1.00;;;;;;;;4936353;28;46148;-52
2022/07/05 00:33:36;;;;;;;;;3.50;1.50;;;;;;;;4937134;28;45304;-48
2022/07/05 00:36:01;;;;;;;;;0.25;0.00;;;;;;;;4929766;28;45207;-47
2022/07/05 00:38:26;;;;;;;;;0.50;0.50;;;;;;;;4937618;28;45571;-53
2022/07/05 00:40:51;;;;;;;;;0.50;0.50;;;;;;;;4937250;28;46473;-51
2022/07/05 00:43:17;;;;;;;;;1.00;1.00;;;;;;;;4937443;28;45249;-48
2022/07/05 00:45:42;;;;;;;;;2.25;2.25;;;;;;;;4936898;28;45285;-56
2022/07/05 00:48:07;;;;;;;;;0.50;0.50;;;;;;;;4937849;28;45197;-52
2022/07/05 00:50:33;;;;;;;;;1.25;1.25;;;;;;;;4937134;28;46567;-49
2022/07/05 00:52:58;;;;;;;;;2.00;1.25;;;;;;;;4937282;28;45276;-48
2022/07/05 00:55:23;;;;;;;;;2.00;0.50;;;;;;;;4934687;28;45380;-48
2022/07/05 00:57:49;;;;;;;;;2.00;2.00;;;;;;;;4936846;28;45663;-48
2022/07/05 01:00:14;;;;;;;;;2.25;2.25;;;;;;;;4936967;28;46172;-53
2022/07/05 01:02:39;;;;;;;;;3.00;2.00;;;;;;;;4918384;28;45822;-49
2022/07/05 01:05:05;;;;;;;;;2.50;2.25;;;;;;;;4917992;28;45331;-52
2022/07/05 01:07:30;;;;;;;;;2.00;2.00;;;;;;;;4918361;28;45448;-50
2022/07/05 01:09:55;;;;;;;;;2.00;1.75;;;;;;;;4931453;28;46725;-51
2022/07/05 01:12:21;;;;;;;;;1.50;1.00;;;;;;;;4938857;28;45399;-52
2022/07/05 01:14:46;;;;;;;;;2.00;2.00;;;;;;;;4921934;28;45348;-52
2022/07/05 01:17:11;;;;;;;;;2.75;2.75;;;;;;;;4919715;28;45333;-46
2022/07/05 01:19:37;;;;;;;;;2.50;2.50;;;;;;;;4920785;28;46504;-46
2022/07/05 01:22:07;;;;;;;;;3.00;3.00;;;;;;;;4920403;28;45368;-49
2022/07/05 01:24:32;;;;;;;;;2.00;1.80;;;;;;;;4921104;28;45345;-52
2022/07/05 01:26:58;;;;;;;;;3.50;2.25;;;;;;;;4920300;28;45455;-53
2022/07/05 01:29:23;;;;;;;;;2.25;1.75;;;;;;;;4920723;28;45807;-46
2022/07/05 01:31:48;;;;;;;;;1.00;1.00;;;;;;;;4921015;28;45365;-54
2022/07/05 01:34:14;;;;;;;;;1.00;1.00;;;;;;;;4920280;28;45237;-49
2022/07/05 01:36:39;;;;;;;;;1.00;1.00;;;;;;;;4901132;28;45510;-50
2022/07/05 01:39:05;;;;;;;;;3.00;1.50;;;;;;;;4915903;28;45841;-51
2022/07/05 01:41:30;;;;;;;;;1.00;1.00;;;;;;;;4919416;28;45226;-48
2022/07/05 01:43:56;;;;;;;;;3.25;2.00;;;;;;;;4920627;28;45314;-55
2022/07/05 01:46:21;;;;;;;;;4.00;2.75;;;;;;;;4920634;28;45367;-51
2022/07/05 01:48:46;;;;;;;;;1.50;1.00;;;;;;;;4920452;28;45625;-48
2022/07/05 01:51:22;;;;;;;;;1.00;1.00;;;;;;;;4936321;28;45269;-47
2022/07/05 01:53:49;;;;;;;;;1.80;1.80;;;;;;;;4939658;28;45540;-48
2022/07/05 01:56:14;;;;;;;;;2.60;2.60;;;;;;;;4937791;28;45363;-47
2022/07/05 01:58:40;;;;;;;;;1.25;1.25;;;;;;;;4939482;28;46012;-49
2022/07/05 02:01:05;;;;;;;;;1.25;1.25;;;;;;;;4938351;28;45473;-53
2022/07/05 02:03:30;;;;;;;;;0.00;0.00;;;;;;;;4919795;28;45414;-46
2022/07/05 02:05:56;;;;;;;;;0.00;0.00;;;;;;;;4919281;28;45310;-49
2022/07/05 02:08:21;;;;;;;;;1.75;1.75;;;;;;;;4919814;28;45380;-52
2022/07/05 02:10:46;;;;;;;;;0.75;0.75;;;;;;;;4936186;28;45352;-53
2022/07/05 02:13:12;;;;;;;;;2.75;1.00;;;;;;;;4938215;28;45345;-52
2022/07/05 02:15:38;;;;;;;;;2.00;1.50;;;;;;;;4920300;28;45556;-51
2022/07/05 02:18:04;;;;;;;;;1.60;1.60;;;;;;;;4919656;28;46220;-49
2022/07/05 02:20:29;;;;;;;;;1.75;1.75;;;;;;;;4919191;28;45222;-48
2022/07/05 02:22:54;;;;;;;;;1.00;1.00;;;;;;;;4919914;28;45499;-51
2022/07/05 02:25:20;;;;;;;;;2.25;2.00;;;;;;;;4920343;28;45143;-50
2022/07/05 02:27:45;;;;;;;;;3.00;3.00;;;;;;;;4918849;28;45886;-53
2022/07/05 02:30:10;;;;;;;;;1.75;1.75;;;;;;;;4920020;28;45264;-50
2022/07/05 02:32:36;;;;;;;;;3.00;3.00;;;;;;;;4918460;28;45425;-49
2022/07/05 02:35:03;;;;;;;;;3.00;2.00;;;;;;;;4911818;28;45562;-51
2022/07/05 02:37:29;;;;;;;;;2.00;1.00;;;;;;;;4919293;28;45484;-48
2022/07/05 02:39:54;;;;;;;;;1.75;1.75;;;;;;;;4918235;28;45325;-49
2022/07/05 02:42:19;;;;;;;;;3.00;1.25;;;;;;;;4919217;28;45404;-50
2022/07/05 02:44:45;;;;;;;;;3.75;1.25;;;;;;;;4919773;28;45327;-50
2022/07/05 02:47:10;;;;;;;;;2.00;2.00;;;;;;;;4919342;28;45534;-50
2022/07/05 02:49:35;;;;;;;;;1.50;1.50;;;;;;;;4918980;28;45244;-55
2022/07/05 02:52:00;;;;;;;;;3.75;3.75;;;;;;;;4918809;28;45436;-51
2022/07/05 02:54:26;;;;;;;;;2.75;2.75;;;;;;;;4917970;28;45351;-48
2022/07/05 02:56:51;;;;;;;;;2.00;2.00;;;;;;;;4918840;28;45655;-51
2022/07/05 02:59:16;;;;;;;;;7.00;3.75;;;;;;;;4918873;28;45154;-52
2022/07/05 03:01:41;;;;;;;;;2.25;2.25;;;;;;;;4919326;28;45348;-47
2022/07/05 03:04:09;;;;;;;;;4.00;4.00;;;;;;;;4918769;28;45530;-46
2022/07/05 03:06:35;;;;;;;;;3.40;3.40;;;;;;;;4918527;28;46258;-47
2022/07/05 03:09:00;;;;;;;;;2.25;2.25;;;;;;;;4918863;28;45284;-49
2022/07/05 03:11:25;;;;;;;;;4.00;3.25;;;;;;;;4938374;28;45305;-52
2022/07/05 03:13:50;;;;;;;;;6.00;4.00;;;;;;;;4938276;28;45632;-52
2022/07/05 03:16:15;;;;;;;;;3.75;3.75;;;;;;;;4919025;28;46711;-51
2022/07/05 03:18:41;;;;;;;;;3.25;2.50;;;;;;;;4918954;28;45357;-49
2022/07/05 03:21:06;;;;;;;;;3.00;3.00;;;;;;;;4919293;28;45405;-46
2022/07/05 03:23:31;;;;;;;;;2.00;2.00;;;;;;;;4919371;28;45429;-46
2022/07/05 03:25:57;;;;;;;;;2.25;2.25;;;;;;;;4919186;28;46450;-50
2022/07/05 03:28:22;;;;;;;;;3.75;3.00;;;;;;;;4934556;28;45347;-49
2022/07/05 03:30:47;;;;;;;;;3.50;2.75;;;;;;;;4938211;28;45414;-47
2022/07/05 03:33:12;;;;;;;;;3.00;3.00;;;;;;;;4937216;28;45616;-55
2022/07/05 03:35:38;;;;;;;;;2.25;2.00;;;;;;;;4930114;28;46405;-56
2022/07/05 03:38:03;;;;;;;;;3.50;3.50;;;;;;;;4937899;28;45470;-50
2022/07/05 03:40:28;;;;;;;;;3.00;1.75;;;;;;;;4920252;28;45436;-48
2022/07/05 03:42:53;;;;;;;;;3.00;3.00;;;;;;;;4918835;28;45555;-51
2022/07/05 03:45:19;;;;;;;;;7.25;5.00;;;;;;;;4918651;28;45466;-47
2022/07/05 03:47:44;;;;;;;;;2.25;2.25;;;;;;;;4918674;28;45420;-46
2022/07/05 03:50:09;;;;;;;;;2.00;2.00;;;;;;;;4917614;28;45475;-48
2022/07/05 03:52:35;;;;;;;;;3.75;2.75;;;;;;;;4917903;28;45388;-51
2022/07/05 03:55:00;;;;;;;;;3.00;2.25;;;;;;;;4917455;28;46468;-52
2022/07/05 03:57:25;;;;;;;;;3.25;2.00;;;;;;;;4917477;28;45391;-52
2022/07/05 03:59:50;;;;;;;;;2.50;2.50;;;;;;;;4918393;28;45490;-49
2022/07/05 04:02:16;;;;;;;;;3.75;3.00;;;;;;;;4917250;28;45565;-46
2022/07/05 04:04:41;;;;;;;;;3.00;2.00;;;;;;;;4933334;28;45441;-47
2022/07/05 04:07:06;;;;;;;;;4.00;3.00;;;;;;;;4937996;28;45309;-48
2022/07/05 04:09:31;;;;;;;;;5.25;4.00;;;;;;;;4937555;28;45549;-51
2022/07/05 04:11:57;;;;;;;;;3.00;3.00;;;;;;;;4937716;28;45261;-47
2022/07/05 04:14:22;;;;;;;;;4.00;3.75;;;;;;;;4937327;28;46786;-50
2022/07/05 04:16:47;;;;;;;;;3.00;3.00;;;;;;;;4920572;28;45438;-52
2022/07/05 04:19:13;;;;;;;;;4.50;3.00;;;;;;;;4918147;28;45336;-49
2022/07/05 04:21:38;;;;;;;;;3.50;3.00;;;;;;;;4918795;28;45550;-47
2022/07/05 04:24:03;;;;;;;;;5.00;4.00;;;;;;;;4918263;28;45474;-53
2022/07/05 04:26:29;;;;;;;;;2.50;2.50;;;;;;;;4917971;28;45286;-52
2022/07/05 04:28:54;;;;;;;;;4.50;4.50;;;;;;;;4917320;28;45336;-46
2022/07/05 04:31:19;;;;;;;;;2.00;2.00;;;;;;;;4918333;28;45682;-46
2022/07/05 04:33:44;;;;;;;;;4.00;4.00;;;;;;;;4918058;28;45392;-52
2022/07/05 04:36:10;;;;;;;;;3.00;3.00;;;;;;;;4909982;28;45462;-49
2022/07/05 04:38:35;;;;;;;;;3.50;3.50;;;;;;;;4917957;28;45286;-51
2022/07/05 04:41:00;;;;;;;;;7.00;4.00;;;;;;;;4917504;28;45503;-52
2022/07/05 04:43:25;;;;;;;;;5.75;5.75;;;;;;;;4918601;28;45536;-48
2022/07/05 04:45:51;;;;;;;;;3.75;3.00;;;;;;;;4921397;28;45364;-47
2022/07/05 04:48:16;;;;;;;;;4.50;4.00;;;;;;;;4921432;28;45253;-50
2022/07/05 04:50:41;;;;;;;;;4.25;3.50;;;;;;;;4921430;28;45581;-49
2022/07/05 04:53:07;;;;;;;;;4.00;4.00;;;;;;;;4932575;28;45709;-46
2022/07/05 04:55:32;;;;;;;;;5.00;4.00;;;;;;;;4933963;28;45324;-47
2022/07/05 04:57:57;;;;;;;;;3.50;3.25;;;;;;;;4936882;28;45672;-53
2022/07/05 05:00:22;;;;;;;;;3.75;3.00;;;;;;;;4939333;28;45317;-53
2022/07/05 05:02:48;;;;;;;;;3.25;3.25;;;;;;;;4940396;28;46539;-52
2022/07/05 05:05:13;;;;;;;;;4.25;3.75;;;;;;;;4922373;28;45318;-50
2022/07/05 05:07:44;;;;;;;;;5.00;5.00;;;;;;;;4916822;28;45645;-56
2022/07/05 05:10:10;;;;;;;;;8.80;7.20;;;;;;;;4925767;28;45344;-50
2022/07/05 05:12:35;;;;;;;;;2.75;2.75;;;;;;;;4938529;28;45921;-49
2022/07/05 05:15:00;;;;;;;;;3.00;3.00;;;;;;;;4940245;28;45383;-49
2022/07/05 05:17:26;;;;;;;;;5.75;5.75;;;;;;;;4923983;28;46359;-51
2022/07/05 05:19:51;;;;;;;;;4.50;4.50;;;;;;;;4920442;28;45301;-53
2022/07/05 05:22:16;;;;;;;;;5.75;5.75;;;;;;;;4920409;28;46426;-52
2022/07/05 05:24:42;;;;;;;;;4.00;4.00;;;;;;;;4920138;28;45384;-49
2022/07/05 05:27:07;;;;;;;;;8.50;4.25;;;;;;;;4920890;28;45306;-47
2022/07/05 05:29:32;;;;;;;;;5.00;4.00;;;;;;;;4933449;28;45440;-47
2022/07/05 05:31:59;;;;;;;;;4.75;4.25;;;;;;;;4939489;28;46497;-52
2022/07/05 05:34:24;;;;;;;;;5.40;5.00;;;;;;;;4939198;28;45384;-53
2022/07/05 05:36:49;;;;;;;;;4.00;4.00;;;;;;;;4935492;28;45453;-55
2022/07/05 05:39:15;;;;;;;;;3.75;3.75;;;;;;;;4938294;28;45373;-51
2022/07/05 05:41:41;;;;;;;;;9.00;6.50;;;;;;;;4923787;28;45492;-53
2022/07/05 05:44:06;;;;;;;;;7.00;5.20;;;;;;;;4920272;28;45340;-49
2022/07/05 05:46:32;;;;;;;;;5.75;4.75;;;;;;;;4920062;28;45540;-47
2022/07/05 05:48:58;;;;;;;;;4.75;4.75;;;;;;;;4920376;28;45205;-45
2022/07/05 05:51:23;;;;;;;;;6.60;6.00;;;;;;;;4919853;28;45570;-52
2022/07/05 05:53:48;;;;;;;;;7.25;7.25;;;;;;;;4919002;28;45245;-52
2022/07/05 05:56:14;;;;;;;;;7.50;7.25;;;;;;;;4918572;28;45649;-54
2022/07/05 05:58:39;;;;;;;;;5.50;5.50;;;;;;;;4919914;28;45141;-51
2022/07/05 06:01:04;;;;;;;;;5.50;4.75;;;;;;;;4919746;28;46492;-52
2022/07/05 06:03:29;;;;;;;;;6.00;6.00;;;;;;;;4920216;28;45346;-53
2022/07/05 06:05:55;;;;;;;;;9.00;6.75;;;;;;;;4918490;28;45420;-53
2022/07/05 06:08:20;;;;;;;;;6.00;6.00;;;;;;;;4919331;28;45583;-51
2022/07/05 06:10:45;;;;;;;;;6.50;6.25;;;;;;;;4928882;28;45301;-50
2022/07/05 06:13:11;;;;;;;;;10.50;8.75;;;;;;;;4938568;28;45259;-55
2022/07/05 06:15:37;;;;;;;;;8.00;6.50;;;;;;;;4938956;28;45400;-56
2022/07/05 06:18:02;;;;;;;;;8.25;8.25;;;;;;;;4937831;28;45498;-54
2022/07/05 06:20:28;;;;;;;;;8.25;7.50;;;;;;;;4939250;28;46675;-50
2022/07/05 06:22:53;;;;;;;;;10.40;7.20;;;;;;;;4937305;28;45321;-53
2022/07/05 06:25:19;;;;;;;;;7.00;7.00;;;;;;;;4939246;28;45256;-55
2022/07/05 06:27:45;;;;;;;;;6.75;6.75;;;;;;;;4939582;28;45493;-54
2022/07/05 06:30:10;;;;;;;;;9.60;9.60;;;;;;;;4938779;28;46740;-52
2022/07/05 06:32:35;;;;;;;;;9.00;8.00;;;;;;;;4938923;28;45316;-51
2022/07/05 06:35:01;;;;;;;;;8.00;8.00;;;;;;;;4937772;28;45400;-51
2022/07/05 06:37:26;;;;;;;;;8.00;8.00;;;;;;;;4938067;28;45357;-54
2022/07/05 06:39:51;;;;;;;;;10.25;7.25;;;;;;;;4916955;28;46819;-56
2022/07/05 06:42:16;;;;;;;;;12.00;9.25;;;;;;;;4938934;28;45374;-53
2022/07/05 06:44:43;;;;;;;;;10.00;7.75;;;;;;;;4939279;28;45399;-49
2022/07/05 06:47:08;;;;;;;;;10.00;9.60;;;;;;;;4938991;28;45327;-49
2022/07/05 06:49:33;;;;;;;;;7.00;7.00;;;;;;;;4937240;28;48765;-50
2022/07/05 06:51:59;;;;;;;;;9.00;8.50;;;;;;;;4938613;28;45264;-52
2022/07/05 06:54:24;;;;;;;;;9.75;8.50;;;;;;;;4934687;28;45543;-49
2022/07/05 06:56:49;;;;;;;;;10.00;8.75;;;;;;;;4938751;28;45365;-53
2022/07/05 06:59:14;;;;;;;;;8.00;7.50;;;;;;;;4938285;28;45780;-55
2022/07/05 07:01:40;;;;;;;;;8.75;8.75;;;;;;;;4937925;28;45741;-55
2022/07/05 07:04:05;;;;;;;;;8.50;7.25;;;;;;;;4937759;28;45381;-49
2022/07/05 07:06:30;;;;;;;;;12.50;9.50;;;;;;;;4936790;28;45434;-52
2022/07/05 07:11:39;;;;;;;;;9.60;8.20;;;;;;;;4933691;28;45719;-48
2022/07/05 07:14:05;;;;;;;;;10.75;9.00;;;;;;;;4937992;28;45829;-46
2022/07/05 07:16:30;;;;;;;;;7.75;7.00;;;;;;;;4937496;28;45507;-53
2022/07/05 07:18:55;;;;;;;;;9.25;8.00;;;;;;;;4936922;28;45586;-50
2022/07/05 07:21:21;;;;;;;;;8.00;7.00;;;;;;;;4918660;28;45446;-53
2022/07/05 07:23:46;;;;;;;;;11.25;9.75;;;;;;;;4919087;28;45355;-52
2022/07/05 07:26:13;;;;;;;;;9.75;7.50;;;;;;;;4918797;28;45434;-51
2022/07/05 07:28:38;;;;;;;;;10.40;9.20;;;;;;;;4918677;28;46159;-48
2022/07/05 07:31:03;;;;;;;;;8.75;8.00;;;;;;;;4918305;28;45494;-51
2022/07/05 07:33:29;;;;;;;;;10.00;8.75;;;;;;;;4918723;28;45460;-54
2022/07/05 07:35:54;;;;;;;;;11.00;9.25;;;;;;;;4919083;28;45285;-53
2022/07/05 07:38:20;;;;;;;;;13.50;12.25;;;;;;;;4918321;28;46541;-48
2022/07/05 07:40:45;;;;;;;;;8.75;7.00;;;;;;;;4918439;28;45378;-50
2022/07/05 07:43:10;;;;;;;;;8.00;8.00;;;;;;;;4926106;28;45368;-53
2022/07/05 07:45:36;;;;;;;;;11.00;10.00;;;;;;;;4918326;28;45241;-53
2022/07/05 07:48:01;;;;;;;;;11.00;9.00;;;;;;;;4918525;28;46026;-51
2022/07/05 07:50:26;;;;;;;;;9.00;9.00;;;;;;;;4918505;28;45343;-47
2022/07/05 07:52:51;;;;;;;;;8.00;8.00;;;;;;;;4918548;28;45220;-54
2022/07/05 07:55:17;;;;;;;;;9.00;9.00;;;;;;;;4910354;28;45392;-47
2022/07/05 07:57:42;;;;;;;;;11.25;9.75;;;;;;;;4936073;28;46503;-47
2022/07/05 08:00:07;;;;;;;;;10.25;8.75;;;;;;;;4937477;28;45201;-51
2022/07/05 08:02:33;;;;;;;;;10.00;10.00;;;;;;;;4935826;28;45263;-53
2022/07/05 08:04:58;;;;;;;;;9.50;9.50;;;;;;;;4937914;28;45214;-55
2022/07/05 08:07:23;;;;;;;;;11.00;10.00;;;;;;;;4937283;28;46524;-50
2022/07/05 08:09:50;;;;;;;;;8.00;7.00;;;;;;;;4917272;28;45268;-50
2022/07/05 08:12:15;;;;;;;;;8.60;8.60;;;;;;;;4936058;28;45256;-47
2022/07/05 08:14:40;;;;;;;;;7.75;7.75;;;;;;;;4937616;28;45841;-49
2022/07/05 08:17:08;;;;;;;;;7.50;6.75;;;;;;;;4936724;28;46109;-51
2022/07/05 08:22:19;;;;;;;;;8.60;7.40;;;;;;;;4930320;28;45352;-51
2022/07/05 08:24:44;;;;;;;;;10.20;7.80;;;;;;;;4940620;28;45383;-53
2022/07/05 08:27:09;;;;;;;;;7.50;6.25;;;;;;;;4939956;28;46054;-55
2022/07/05 08:29:35;;;;;;;;;5.25;5.25;;;;;;;;4938854;28;45509;-53
2022/07/05 08:32:01;;;;;;;;;8.40;8.40;;;;;;;;4937540;28;45339;-54
2022/07/05 08:34:26;;;;;;;;;8.25;7.50;;;;;;;;4920350;28;45671;-47
2022/07/05 08:36:51;;;;;;;;;9.00;9.00;;;;;;;;4920428;28;46607;-49
2022/07/05 08:39:17;;;;;;;;;7.75;7.75;;;;;;;;4921060;28;45494;-50
2022/07/05 08:41:42;;;;;;;;;6.00;6.00;;;;;;;;4917981;28;46129;-51
2022/07/05 08:44:08;;;;;;;;;8.25;6.75;;;;;;;;4931802;28;45527;-53
2022/07/05 08:46:33;;;;;;;;;7.00;6.50;;;;;;;;4939969;28;46376;-53
2022/07/05 08:49:02;;;;;;;;;8.25;7.25;;;;;;;;4939887;28;45689;-50
2022/07/05 08:51:28;;;;;;;;;6.60;6.40;;;;;;;;4940438;28;45601;-51
2022/07/05 08:53:53;;;;;;;;;7.00;5.50;;;;;;;;4940168;28;45324;-49
2022/07/05 08:56:18;;;;;;;;;4.50;4.50;;;;;;;;4930121;28;45601;-49
2022/07/05 08:58:44;;;;;;;;;5.50;5.25;;;;;;;;4940290;28;45429;-51
2022/07/05 09:01:09;;;;;;;;;4.75;4.75;;;;;;;;4939383;28;45360;-54
2022/07/05 09:03:38;;;;;;;;;3.75;3.75;;;;;;;;4940261;28;45392;-52
2022/07/05 09:06:04;;;;;;;;;4.80;4.80;;;;;;;;4939642;28;45766;-50
2022/07/05 09:08:32;;;;;;;;;4.75;4.75;;;;;;;;4935158;28;45619;-50
2022/07/05 09:10:58;;;;;;;;;5.80;4.60;;;;;;;;4926316;28;45743;-54
2022/07/05 09:13:23;;;;;;;;;4.50;4.50;;;;;;;;4939886;28;45379;-49
2022/07/05 09:15:48;;;;;;;;;5.75;5.75;;;;;;;;4940090;28;45395;-49
2022/07/05 09:18:13;;;;;;;;;5.50;4.50;;;;;;;;4939281;28;45466;-57
2022/07/05 09:20:39;;;;;;;;;6.25;5.25;;;;;;;;4935295;28;45305;-57
2022/07/05 09:23:04;;;;;;;;;4.00;4.00;;;;;;;;4919178;28;45781;-49
2022/07/05 09:25:30;;;;;;;;;5.25;5.25;;;;;;;;4920011;28;46612;-53
2022/07/05 09:28:06;;;;;;;;;6.20;5.40;;;;;;;;4920400;28;45379;-51
2022/07/05 09:30:38;;;;;;;;;4.40;4.40;;;;;;;;4920355;28;45304;-55
2022/07/05 09:33:14;;;;;;;;;5.40;4.00;;;;;;;;4923391;28;45520;-53
2022/07/05 09:35:40;;;;;;;;;3.40;3.20;;;;;;;;4939584;28;47411;-51
2022/07/05 09:38:06;;;;;;;;;5.75;4.75;;;;;;;;4939058;28;45790;-52
2022/07/05 09:40:55;;;;;;;;;5.40;5.00;;;;;;;;4939162;28;45364;-50
2022/07/05 09:43:21;;;;;;;;;5.40;4.60;;;;;;;;4938491;28;45252;-58
2022/07/05 09:45:53;;;;;;;;;6.40;5.80;;;;;;;;4937510;28;46901;-54
2022/07/05 09:48:18;;;;;;;;;4.80;4.80;;;;;;;;4938978;28;45503;-51
2022/07/05 09:50:44;;;;;;;;;5.75;5.25;;;;;;;;4905800;28;45356;-52
2022/07/05 09:53:11;;;;;;;;;6.00;5.00;;;;;;;;4927751;28;45577;-52
2022/07/05 09:55:37;;;;;;;;;4.00;4.00;;;;;;;;4932591;28;45804;-53
2022/07/05 09:58:02;;;;;;;;;5.50;4.25;;;;;;;;4936827;28;45450;-55
2022/07/05 10:00:27;;;;;;;;;4.25;4.25;;;;;;;;4937103;28;45535;-49
2022/07/05 10:02:55;;;;;;;;;5.00;5.00;;;;;;;;4919963;28;45522;-54
2022/07/05 10:05:23;;;;;;;;;6.20;4.40;;;;;;;;4911078;28;46200;-47
2022/07/05 10:07:49;;;;;;;;;6.20;5.60;;;;;;;;4925467;28;48350;-50
2022/07/05 10:10:15;;;;;;;;;4.00;4.00;;;;;;;;4935621;28;45894;-51
2022/07/05 10:12:41;;;;;;;;;6.60;5.00;;;;;;;;4937058;28;45657;-48
2022/07/05 10:15:08;;;;;;;;;5.50;5.25;;;;;;;;4936121;28;46528;-51
2022/07/05 10:17:35;;;;;;;;;5.00;5.00;;;;;;;;4885864;28;45991;-51
2022/07/05 10:20:00;;;;;;;;;4.40;4.40;;;;;;;;4917096;28;45864;-54
2022/07/05 10:22:26;;;;;;;;;10.25;8.50;;;;;;;;4915882;28;45659;-48
2022/07/05 10:24:51;;;;;;;;;5.00;3.00;;;;;;;;4916190;28;45459;-52
2022/07/05 10:27:16;;;;;;;;;9.00;7.25;;;;;;;;4937214;28;45446;-56
2022/07/05 10:29:42;;;;;;;;;8.25;8.25;;;;;;;;4936499;28;45406;-50
2022/07/05 10:32:08;;;;;;;;;6.75;5.25;;;;;;;;4925519;28;45298;-51
2022/07/05 10:34:33;;;;;;;;;7.40;6.60;;;;;;;;4917183;28;46216;-49
2022/07/05 10:36:59;;;;;;;;;5.50;5.50;;;;;;;;4916000;28;45945;-49
2022/07/05 10:39:25;;;;;;;;;5.75;5.50;;;;;;;;4921757;28;45338;-55
2022/07/05 10:41:51;;;;;;;;;6.00;6.00;;;;;;;;4936125;28;45340;-53
2022/07/05 10:44:26;;;;;;;;;6.00;5.75;;;;;;;;4935825;28;45647;-51
2022/07/05 10:46:51;;;;;;;;;8.00;5.80;;;;;;;;4930256;28;45379;-47
2022/07/05 10:49:17;;;;;;;;;7.00;7.00;;;;;;;;4919269;28;45423;-48
2022/07/05 10:51:43;;;;;;;;;5.60;5.60;;;;;;;;4910088;28;46071;-50
2022/07/05 10:54:08;;;;;;;;;5.25;4.25;;;;;;;;4936455;28;45772;-52
2022/07/05 10:56:34;;;;;;;;;5.00;5.00;;;;;;;;4938251;28;45463;-53
2022/07/05 10:59:08;;;;;;;;;4.25;4.25;;;;;;;;4938301;28;45442;-51
2022/07/05 11:01:34;;;;;;;;;4.20;4.20;;;;;;;;4938391;28;45392;-53
2022/07/05 11:04:04;;;;;;;;;6.00;6.00;;;;;;;;4938046;28;45747;-57
2022/07/05 11:06:29;;;;;;;;;4.20;4.20;;;;;;;;4937963;28;45319;-50
2022/07/05 11:08:58;;;;;;;;;8.75;7.00;;;;;;;;4938112;28;45362;-53
2022/07/05 11:11:27;;;;;;;;;8.20;7.60;;;;;;;;4938359;28;45534;-53
2022/07/05 11:13:55;;;;;;;;;7.40;6.20;;;;;;;;4937747;28;46592;-50
2022/07/05 11:16:22;;;;;;;;;4.00;4.00;;;;;;;;4938144;28;45348;-49
2022/07/05 11:18:48;;;;;;;;;5.40;4.00;;;;;;;;4937942;28;45495;-47
2022/07/05 11:21:17;;;;;;;;;4.25;4.25;;;;;;;;4938447;28;45345;-46
2022/07/05 11:23:42;;;;;;;;;6.40;6.20;;;;;;;;4938214;28;45677;-54
2022/07/05 11:26:07;;;;;;;;;4.25;3.00;;;;;;;;4938108;28;45245;-53
2022/07/05 11:28:41;;;;;;;;;5.50;4.50;;;;;;;;4938390;28;45380;-48
2022/07/05 11:31:06;;;;;;;;;6.00;6.00;;;;;;;;4938165;28;45462;-50
2022/07/05 11:33:32;;;;;;;;;5.00;5.00;;;;;;;;4937964;28;46306;-49
2022/07/05 11:35:57;;;;;;;;;4.00;4.00;;;;;;;;4938117;28;45454;-49
2022/07/05 11:38:23;;;;;;;;;3.75;3.75;;;;;;;;4937870;28;45315;-49
2022/07/05 11:40:48;;;;;;;;;7.00;6.00;;;;;;;;4938266;28;45263;-50
2022/07/05 11:43:13;;;;;;;;;4.50;4.00;;;;;;;;4936469;28;47273;-48
2022/07/05 11:45:39;;;;;;;;;5.00;4.00;;;;;;;;4938205;28;45320;-49
2022/07/05 11:48:04;;;;;;;;;6.50;5.25;;;;;;;;4921367;28;45799;-47
2022/07/05 11:50:30;;;;;;;;;7.50;4.00;;;;;;;;4937591;28;45616;-50
2022/07/05 11:52:56;;;;;;;;;6.40;6.20;;;;;;;;4934045;28;47603;-51
2022/07/05 11:55:21;;;;;;;;;6.00;6.00;;;;;;;;4937147;28;45296;-51
2022/07/05 11:57:50;;;;;;;;;7.25;6.00;;;;;;;;4936827;28;45346;-48
2022/07/05 12:00:24;;;;;;;;;6.20;6.20;;;;;;;;4937511;28;45232;-47
2022/07/05 12:02:50;;;;;;;;;3.60;3.20;;;;;;;;4936796;28;47241;-52
2022/07/05 12:05:15;;;;;;;;;4.50;4.50;;;;;;;;4923584;28;45470;-51
2022/07/05 12:07:47;;;;;;;;;4.50;4.50;;;;;;;;4917229;28;45329;-47
2022/07/05 12:13:02;;;;;;;;;3.60;3.60;;;;;;;;4934347;28;45901;-49
2022/07/05 12:15:28;;;;;;;;;3.20;3.20;;;;;;;;4935746;28;45445;-53
2022/07/05 12:17:54;;;;;;;;;5.00;5.00;;;;;;;;4935421;28;46660;-50
2022/07/05 12:20:23;;;;;;;;;10.60;7.20;;;;;;;;4936787;28;45425;-50
2022/07/05 12:22:48;;;;;;;;;4.20;4.20;;;;;;;;4936920;28;46151;-51
2022/07/05 12:25:14;;;;;;;;;7.25;4.00;;;;;;;;4935445;28;45675;-53
2022/07/05 12:27:40;;;;;;;;;4.00;4.00;;;;;;;;4937000;28;45447;-52
2022/07/05 12:30:06;;;;;;;;;5.00;4.00;;;;;;;;4919617;28;45788;-49
2022/07/05 12:32:31;;;;;;;;;7.00;5.50;;;;;;;;4917216;28;46568;-47
2022/07/05 12:34:57;;;;;;;;;2.75;2.75;;;;;;;;4917641;28;45399;-46
2022/07/05 12:37:26;;;;;;;;;3.00;3.00;;;;;;;;4916586;28;45405;-46
2022/07/05 12:40:07;;;;;;;;;7.40;4.00;;;;;;;;4917831;28;45372;-50
2022/07/05 12:42:33;;;;;;;;;6.00;5.60;;;;;;;;4916309;28;45991;-50
2022/07/05 12:45:08;;;;;;;;;4.40;4.20;;;;;;;;4918391;28;45477;-50
2022/07/05 12:47:47;;;;;;;;;2.20;2.20;;;;;;;;4916938;28;45376;-49
2022/07/05 12:50:12;;;;;;;;;3.20;3.20;;;;;;;;4916688;28;45289;-48
2022/07/05 12:52:56;;;;;;;;;1.00;1.00;;;;;;;;4932002;28;46335;-47
2022/07/05 12:58:05;;;;;;;;;3.00;3.00;;;;;;;;4916738;28;45348;-50
2022/07/05 13:00:30;;;;;;;;;5.00;5.00;;;;;;;;4915905;28;45422;-47
2022/07/05 13:02:56;;;;;;;;;2.50;2.00;;;;;;;;4919953;28;46513;-47
2022/07/05 13:05:24;;;;;;;;;3.75;2.25;;;;;;;;4936341;28;45348;-51
2022/07/05 13:07:51;;;;;;;;;3.20;3.20;;;;;;;;4938433;28;45388;-49
2022/07/05 13:10:17;;;;;;;;;5.40;4.00;;;;;;;;4939297;28;45407;-48
2022/07/05 13:12:42;;;;;;;;;3.00;3.00;;;;;;;;4938610;28;46450;-51
2022/07/05 13:15:08;;;;;;;;;2.00;2.00;;;;;;;;4920626;28;45544;-45
2022/07/05 13:17:33;;;;;;;;;2.25;2.25;;;;;;;;4935515;28;45486;-47
2022/07/05 13:19:59;;;;;;;;;4.00;4.00;;;;;;;;4938960;28;45502;-49
2022/07/05 13:22:25;;;;;;;;;4.50;4.50;;;;;;;;4937942;28;47408;-50
2022/07/05 13:24:50;;;;;;;;;2.00;2.00;;;;;;;;4937122;28;45696;-51
2022/07/05 13:27:15;;;;;;;;;1.00;1.00;;;;;;;;4938927;28;45261;-50
2022/07/05 13:29:41;;;;;;;;;4.25;3.75;;;;;;;;4931798;28;45292;-49
2022/07/05 13:32:06;;;;;;;;;3.00;3.00;;;;;;;;4938017;28;45778;-48
2022/07/05 13:34:31;;;;;;;;;2.00;2.00;;;;;;;;4938109;28;45584;-46
2022/07/05 13:36:57;;;;;;;;;4.00;4.00;;;;;;;;4938309;28;45348;-50
2022/07/05 13:39:22;;;;;;;;;2.00;2.00;;;;;;;;4935177;28;45678;-48
2022/07/05 13:41:48;;;;;;;;;4.00;4.00;;;;;;;;4918176;28;46426;-48
2022/07/05 13:44:13;;;;;;;;;3.25;3.25;;;;;;;;4919014;28;45570;-47
2022/07/05 13:46:39;;;;;;;;;2.00;2.00;;;;;;;;4919122;28;45619;-50
2022/07/05 13:49:04;;;;;;;;;2.00;2.00;;;;;;;;4916308;28;45462;-51
2022/07/05 13:51:29;;;;;;;;;3.25;3.25;;;;;;;;4918229;28;46158;-46
2022/07/05 13:53:54;;;;;;;;;4.25;3.25;;;;;;;;4919325;28;45611;-46
2022/07/05 13:56:20;;;;;;;;;3.75;3.75;;;;;;;;4889138;28;46080;-52
2022/07/05 13:58:45;;;;;;;;;2.00;2.00;;;;;;;;4939184;28;45604;-49
2022/07/05 14:01:10;;;;;;;;;3.00;3.00;;;;;;;;4937934;28;45521;-49
2022/07/05 14:03:36;;;;;;;;;3.50;2.25;;;;;;;;4938979;28;45508;-51
2022/07/05 14:06:01;;;;;;;;;4.75;3.75;;;;;;;;4939093;28;45780;-51
2022/07/05 14:08:26;;;;;;;;;3.75;3.00;;;;;;;;4939373;28;45562;-52
2022/07/05 14:10:53;;;;;;;;;3.75;2.50;;;;;;;;4938747;28;46149;-51
2022/07/05 14:13:18;;;;;;;;;3.00;3.00;;;;;;;;4928202;28;45461;-52
2022/07/05 14:15:45;;;;;;;;;2.00;2.00;;;;;;;;4948396;28;46509;-49
2022/07/05 14:18:10;;;;;;;;;2.40;2.40;;;;;;;;4938450;28;45514;-53
2022/07/05 14:20:36;;;;;;;;;4.00;4.00;;;;;;;;4937389;28;46837;-53
2022/07/05 14:23:01;;;;;;;;;2.50;2.50;;;;;;;;4938672;28;45384;-51
2022/07/05 14:25:26;;;;;;;;;2.00;2.00;;;;;;;;4938433;28;45432;-46
2022/07/05 14:27:51;;;;;;;;;3.00;3.00;;;;;;;;4939027;28;45803;-48
2022/07/05 14:30:17;;;;;;;;;4.25;3.25;;;;;;;;4939120;28;46568;-48
2022/07/05 14:32:42;;;;;;;;;3.00;3.00;;;;;;;;4939208;28;45332;-51
2022/07/05 14:35:08;;;;;;;;;3.00;2.00;;;;;;;;4938753;28;45468;-53
2022/07/05 14:37:33;;;;;;;;;4.75;3.75;;;;;;;;4939040;28;45194;-51
2022/07/05 14:39:59;;;;;;;;;4.00;4.00;;;;;;;;4938584;28;45712;-51
2022/07/05 14:42:24;;;;;;;;;6.00;4.00;;;;;;;;4938589;28;45447;-53
2022/07/05 14:44:49;;;;;;;;;5.75;4.00;;;;;;;;4938960;28;45376;-52
2022/07/05 14:47:15;;;;;;;;;3.00;3.00;;;;;;;;4938891;28;45308;-49